ANA97 RJTT-RJBB
Flight info
| Callsign | ANA97 |
|---|---|
| Flight time | N/A |
| Altitude | 32000 |
| Route | LAXAS4 LAXAS Y56 TOHME Y54 KOHWA Y544 DUBKA DUBKAA |
| Aircraft | A359/H-SDE2E3GHIJ3J4J5LM1ORWXY/LB1D1 |
Departure
| Time | 2026-05-06 14:35 |
|---|---|
| Airport | Tokyo Haneda International Airport (RJTT) |
Arrival
| Time | N/A |
|---|---|
| Airport | Kansai International Airport (RJBB) |
| Time | Latitude | Longitude | Altitude | Speed | Heading |
|---|---|---|---|---|---|
| 2026-05-06 14:27 | 35.55115 | 139.79095 | 27 ft | 2 kts | 330° |
| 2026-05-06 14:27 | 35.55114 | 139.79096 | 27 ft | 0 kts | 330° |
| 2026-05-06 14:29 | 35.55120 | 139.79091 | 26 ft | 4 kts | 330° |
| 2026-05-06 14:30 | 35.55177 | 139.79050 | 30 ft | 15 kts | 329° |
| 2026-05-06 14:30 | 35.55286 | 139.78974 | 30 ft | 19 kts | 330° |
| 2026-05-06 14:30 | 35.55402 | 139.78984 | 30 ft | 19 kts | 54° |
| 2026-05-06 14:30 | 35.55486 | 139.79114 | 30 ft | 20 kts | 36° |
| 2026-05-06 14:31 | 35.55555 | 139.79130 | 29 ft | 13 kts | 347° |
| 2026-05-06 14:31 | 35.55636 | 139.79075 | 29 ft | 14 kts | 329° |
| 2026-05-06 14:31 | 35.55728 | 139.79009 | 29 ft | 16 kts | 330° |
| 2026-05-06 14:31 | 35.55872 | 139.78909 | 29 ft | 19 kts | 330° |
| 2026-05-06 14:32 | 35.55951 | 139.78854 | 29 ft | 20 kts | 330° |
| 2026-05-06 14:32 | 35.56120 | 139.78735 | 29 ft | 22 kts | 330° |
| 2026-05-06 14:32 | 35.56210 | 139.78671 | 29 ft | 22 kts | 330° |
| 2026-05-06 14:32 | 35.56350 | 139.78570 | 29 ft | 24 kts | 329° |
| 2026-05-06 14:33 | 35.56471 | 139.78510 | 29 ft | 15 kts | 24° |
| 2026-05-06 14:33 | 35.56495 | 139.78530 | 29 ft | 0 kts | 34° |
| 2026-05-06 14:33 | 35.56526 | 139.78561 | 29 ft | 10 kts | 45° |
| 2026-05-06 14:33 | 35.56553 | 139.78613 | 29 ft | 8 kts | 65° |
| 2026-05-06 14:34 | 35.56548 | 139.78681 | 30 ft | 10 kts | 126° |
| 2026-05-06 14:34 | 35.56493 | 139.78728 | 30 ft | 0 kts | 150° |
| 2026-05-06 14:34 | 35.56459 | 139.78752 | 30 ft | 16 kts | 150° |
| 2026-05-06 14:35 | 35.56171 | 139.78954 | 30 ft | 86 kts | 149° |
| 2026-05-06 14:35 | 35.55471 | 139.79443 | 30 ft | 143 kts | 152° |
| 2026-05-06 14:35 | 35.54563 | 139.80123 | 549 ft | 150 kts | 149° |
| 2026-05-06 14:35 | 35.53712 | 139.80812 | 1359 ft | 148 kts | 152° |
| 2026-05-06 14:36 | 35.52762 | 139.81468 | 1727 ft | 166 kts | 155° |
| 2026-05-06 14:36 | 35.51685 | 139.82184 | 2012 ft | 187 kts | 154° |
| 2026-05-06 14:36 | 35.50466 | 139.83011 | 2261 ft | 212 kts | 153° |
| 2026-05-06 14:36 | 35.49117 | 139.83947 | 2526 ft | 232 kts | 153° |
| 2026-05-06 14:37 | 35.47671 | 139.84964 | 2931 ft | 245 kts | 152° |
| 2026-05-06 14:37 | 35.46180 | 139.85979 | 3428 ft | 251 kts | 157° |
| 2026-05-06 14:37 | 35.44487 | 139.86447 | 3973 ft | 252 kts | 184° |
| 2026-05-06 14:37 | 35.42852 | 139.85792 | 4639 ft | 249 kts | 212° |
| 2026-05-06 14:38 | 35.41447 | 139.84550 | 5268 ft | 251 kts | 218° |
| 2026-05-06 14:38 | 35.40079 | 139.83199 | 5873 ft | 254 kts | 219° |
| 2026-05-06 14:38 | 35.38700 | 139.81834 | 6500 ft | 255 kts | 218° |
| 2026-05-06 14:38 | 35.37307 | 139.80470 | 7069 ft | 258 kts | 218° |
| 2026-05-06 14:39 | 35.35890 | 139.79095 | 7587 ft | 262 kts | 217° |
| 2026-05-06 14:39 | 35.34441 | 139.77696 | 8105 ft | 267 kts | 217° |
| 2026-05-06 14:39 | 35.32975 | 139.76285 | 8742 ft | 269 kts | 217° |
| 2026-05-06 14:39 | 35.31499 | 139.74853 | 9379 ft | 273 kts | 218° |
| 2026-05-06 14:40 | 35.30033 | 139.73352 | 10023 ft | 275 kts | 219° |
| 2026-05-06 14:40 | 35.28560 | 139.71816 | 10487 ft | 282 kts | 219° |
| 2026-05-06 14:40 | 35.27024 | 139.70209 | 10723 ft | 297 kts | 220° |
| 2026-05-06 14:40 | 35.25415 | 139.68528 | 10941 ft | 311 kts | 220° |
| 2026-05-06 14:41 | 35.23732 | 139.66768 | 11140 ft | 325 kts | 220° |